createdAt,value
2023-05-08T00:00:50.108Z,97.99
2023-05-08T00:01:50.075Z,97.69
2023-05-08T00:02:50.172Z,97.69
2023-05-08T00:03:50.249Z,97.99
2023-05-08T00:04:50.159Z,97.49
2023-05-08T00:05:50.038Z,97.59
2023-05-08T00:06:50.029Z,97.89
2023-05-08T00:07:49.998Z,97.99
2023-05-08T00:08:49.985Z,97.59
2023-05-08T00:09:49.971Z,97.59
2023-05-08T00:10:49.959Z,97.79
2023-05-08T00:11:49.952Z,97.63
2023-05-08T00:12:49.985Z,97.43
2023-05-08T00:13:49.929Z,97.63
2023-05-08T00:14:49.901Z,97.33
2023-05-08T00:15:49.894Z,97.63
2023-05-08T00:16:49.938Z,97.53
2023-05-08T00:17:49.887Z,97.53
2023-05-08T00:18:49.865Z,97.53
2023-05-08T00:19:49.868Z,97.53
2023-05-08T00:20:49.825Z,97.63
2023-05-08T00:21:49.821Z,97.83
2023-05-08T00:22:49.801Z,97.83
2023-05-08T00:23:49.800Z,97.83
2023-05-08T00:24:49.809Z,97.63
2023-05-08T00:25:49.765Z,96.92
2023-05-08T00:26:49.756Z,97.02
2023-05-08T00:27:49.735Z,96.92
2023-05-08T00:28:49.734Z,97.13
2023-05-08T00:29:49.718Z,97.43
2023-05-08T00:30:49.708Z,97.33
2023-05-08T00:31:49.706Z,97.33
2023-05-08T00:32:49.721Z,97.53
2023-05-08T00:33:49.665Z,97.43
2023-05-08T00:34:49.645Z,97.43
2023-05-08T00:35:49.654Z,97.63
2023-05-08T00:36:49.621Z,97.43
2023-05-08T00:37:49.609Z,97.63
2023-05-08T00:38:49.589Z,97.74
2023-05-08T00:39:49.588Z,97.22
2023-05-08T00:40:49.564Z,97.22
2023-05-08T00:41:49.555Z,97.22
2023-05-08T00:42:49.544Z,97.43
2023-05-08T00:43:49.537Z,97.63
2023-05-08T00:44:49.520Z,97.43
2023-05-08T00:45:49.527Z,97.43
2023-05-08T00:46:49.530Z,97.43
2023-05-08T00:47:49.536Z,97.22
2023-05-08T00:48:49.468Z,97.43
2023-05-08T00:49:49.448Z,97.33
2023-05-08T00:50:49.435Z,97.02
2023-05-08T00:51:49.445Z,97.22
2023-05-08T00:52:49.411Z,97.63
2023-05-08T00:53:49.396Z,97.83
2023-05-08T00:54:49.382Z,97.74
2023-05-08T00:55:49.379Z,97.53
2023-05-08T00:56:49.364Z,97.74
2023-05-08T00:57:49.346Z,97.83
2023-05-08T00:58:49.331Z,97.83
2023-05-08T00:59:49.335Z,97.74
2023-05-08T01:00:49.308Z,97.83
2023-05-08T01:01:49.333Z,97.83
2023-05-08T01:02:49.390Z,97.74
2023-05-08T01:03:49.397Z,97.74
2023-05-08T01:04:49.282Z,97.63
2023-05-08T01:05:49.249Z,97.63
2023-05-08T01:06:49.228Z,97.74
2023-05-08T01:07:49.244Z,97.63
2023-05-08T01:08:49.218Z,97.63
2023-05-08T01:09:49.195Z,97.74
2023-05-08T01:10:49.188Z,97.63
2023-05-08T01:11:49.168Z,97.78
2023-05-08T01:12:49.183Z,97.68
2023-05-08T01:13:49.142Z,97.88
2023-05-08T01:14:49.136Z,97.88
2023-05-08T01:15:49.145Z,97.88
2023-05-08T01:16:49.104Z,97.88
2023-05-08T01:17:49.177Z,97.99
2023-05-08T01:18:49.089Z,98.19
2023-05-08T01:19:49.078Z,98.08
2023-05-08T01:20:49.051Z,97.99
2023-05-08T01:21:49.060Z,98.19
2023-05-08T01:22:49.026Z,98.19
2023-05-08T01:23:49.045Z,97.99
2023-05-08T01:24:49.002Z,97.88
2023-05-08T01:25:48.990Z,98.08
2023-05-08T01:26:48.974Z,97.68
2023-05-08T01:27:48.965Z,97.68
2023-05-08T01:28:48.951Z,97.78
2023-05-08T01:29:48.941Z,97.68
2023-05-08T01:30:48.925Z,97.58
2023-05-08T01:31:48.941Z,97.68
2023-05-08T01:32:48.908Z,97.68
2023-05-08T01:33:48.942Z,97.47
2023-05-08T01:34:48.870Z,97.62
2023-05-08T01:35:48.859Z,97.78
2023-05-08T01:36:48.848Z,97.52
2023-05-08T01:37:48.840Z,97.42
2023-05-08T01:38:48.819Z,97.52
2023-05-08T01:39:48.837Z,97.42
2023-05-08T01:40:48.797Z,97.47
2023-05-08T01:41:48.782Z,97.32
2023-05-08T01:42:48.769Z,97.27
2023-05-08T01:43:48.761Z,97.27
2023-05-08T01:44:48.749Z,97.17
2023-05-08T01:45:48.730Z,97.27
2023-05-08T01:46:48.770Z,96.97
2023-05-08T01:47:48.800Z,96.86
2023-05-08T01:48:48.692Z,96.66
2023-05-08T01:49:48.680Z,96.66
2023-05-08T01:50:48.675Z,96.45
2023-05-08T01:51:48.666Z,96.30
2023-05-08T01:52:48.642Z,96.40
2023-05-08T01:53:48.630Z,96.09
2023-05-08T01:54:48.610Z,96.30
2023-05-08T01:55:48.637Z,96.30
2023-05-08T01:56:48.587Z,96.30
2023-05-08T01:57:48.572Z,96.50
2023-05-08T01:58:48.563Z,96.30
2023-05-08T01:59:48.551Z,96.71
2023-05-08T02:00:48.602Z,96.61
2023-05-08T02:01:48.566Z,95.99
2023-05-08T02:02:48.683Z,95.89
2023-05-08T02:03:48.612Z,95.89
2023-05-08T02:04:48.490Z,95.99
2023-05-08T02:05:48.474Z,96.30
2023-05-08T02:06:48.462Z,96.40
2023-05-08T02:07:48.444Z,96.50
2023-05-08T02:08:48.434Z,96.61
2023-05-08T02:09:48.422Z,96.40
2023-05-08T02:10:48.406Z,96.40
2023-05-08T02:11:48.434Z,96.50
2023-05-08T02:12:48.393Z,96.50
2023-05-08T02:13:48.373Z,96.61
2023-05-08T02:14:48.354Z,96.66
2023-05-08T02:15:48.367Z,96.71
2023-05-08T02:16:48.332Z,96.61
2023-05-08T02:17:48.336Z,96.61
2023-05-08T02:18:48.311Z,96.66
2023-05-08T02:19:48.296Z,96.40
2023-05-08T02:20:48.275Z,96.50
2023-05-08T02:21:48.277Z,96.71
2023-05-08T02:22:48.253Z,96.71
2023-05-08T02:23:48.254Z,96.81
2023-05-08T02:24:48.226Z,96.91
2023-05-08T02:25:48.267Z,96.71
2023-05-08T02:26:48.201Z,96.81
2023-05-08T02:27:48.271Z,96.91
2023-05-08T02:28:48.179Z,97.01
2023-05-08T02:29:48.164Z,96.81
2023-05-08T02:30:48.148Z,96.81
2023-05-08T02:31:48.208Z,96.86
2023-05-08T02:32:48.177Z,96.76
2023-05-08T02:33:48.107Z,96.97
2023-05-08T02:35:01.950Z,97.07
2023-05-08T02:35:48.088Z,96.76
2023-05-08T02:36:48.070Z,96.86
2023-05-08T02:37:48.063Z,96.86
2023-05-08T02:38:48.050Z,96.45
2023-05-08T02:39:48.035Z,96.56
2023-05-08T02:40:48.018Z,96.05
2023-05-08T02:41:48.009Z,96.15
2023-05-08T02:42:47.992Z,96.66
2023-05-08T02:43:48.007Z,96.50
2023-05-08T02:44:47.966Z,96.45
2023-05-08T02:45:47.985Z,96.66
2023-05-08T02:46:47.937Z,96.45
2023-05-08T02:47:47.961Z,96.05
2023-05-08T02:48:47.927Z,96.09
2023-05-08T02:49:47.911Z,96.36
2023-05-08T02:50:47.906Z,96.56
2023-05-08T02:51:47.899Z,96.36
2023-05-08T02:52:47.860Z,96.25
2023-05-08T02:53:47.849Z,96.15
2023-05-08T02:54:47.842Z,95.23
2023-05-08T02:55:47.832Z,94.87
2023-05-08T02:56:47.809Z,95.18
2023-05-08T02:57:47.796Z,95.59
2023-05-08T02:58:47.782Z,95.89
2023-05-08T02:59:47.794Z,95.59
2023-05-08T03:00:47.772Z,95.69
2023-05-08T03:01:47.780Z,95.99
2023-05-08T03:02:47.794Z,96.20
2023-05-08T03:03:48.049Z,95.99
2023-05-08T03:04:47.713Z,95.69
2023-05-08T03:05:47.699Z,95.69
2023-05-08T03:06:47.676Z,95.69
2023-05-08T03:07:47.687Z,95.89
2023-05-08T03:08:47.667Z,95.48
2023-05-08T03:09:47.638Z,95.59
2023-05-08T03:10:47.624Z,95.69
2023-05-08T03:11:47.619Z,95.79
2023-05-08T03:12:47.659Z,95.83
2023-05-08T03:13:47.586Z,96.14
2023-05-08T03:14:47.581Z,96.55
2023-05-08T03:15:47.610Z,96.96
2023-05-08T03:16:47.543Z,96.85
2023-05-08T03:17:47.581Z,97.01
2023-05-08T03:18:47.522Z,96.71
2023-05-08T03:20:47.504Z,96.04
2023-05-08T03:21:47.485Z,96.14
2023-05-08T03:22:47.480Z,96.09
2023-05-08T03:23:47.457Z,95.63
2023-05-08T03:24:47.441Z,96.14
2023-05-08T03:25:47.431Z,96.20
2023-05-08T03:26:47.418Z,96.09
2023-05-08T03:27:47.406Z,95.99
2023-05-08T03:28:47.396Z,95.63
2023-05-08T03:29:47.378Z,95.94
2023-05-08T03:30:47.500Z,96.14
2023-05-08T03:31:47.528Z,96.20
2023-05-08T03:32:47.367Z,96.04
2023-05-08T03:33:47.328Z,96.14
2023-05-08T03:34:47.312Z,96.20
2023-05-08T03:35:47.302Z,96.30
2023-05-08T03:36:47.282Z,96.40
2023-05-08T03:37:47.276Z,96.56
2023-05-08T03:38:47.261Z,96.36
2023-05-08T03:39:47.248Z,95.64
2023-05-08T03:40:47.245Z,95.18
2023-05-08T03:41:47.226Z,95.48
2023-05-08T03:42:47.209Z,95.59
2023-05-08T03:43:47.202Z,95.48
2023-05-08T03:44:47.179Z,95.59
2023-05-08T03:45:47.169Z,95.59
2023-05-08T03:46:47.194Z,95.59
2023-05-08T03:47:47.315Z,95.69
2023-05-08T03:48:47.129Z,95.89
2023-05-08T03:49:47.117Z,95.79
2023-05-08T03:50:47.115Z,95.69
2023-05-08T03:51:47.093Z,95.59
2023-05-08T03:52:47.097Z,95.89
2023-05-08T03:53:47.073Z,95.89
2023-05-08T03:54:47.063Z,96.09
2023-05-08T03:55:47.048Z,96.20
2023-05-08T03:56:47.033Z,96.40
2023-05-08T03:57:47.019Z,96.40
2023-05-08T03:58:47.007Z,96.61
2023-05-08T03:59:46.993Z,96.50
2023-05-08T04:00:46.985Z,96.50
2023-05-08T04:01:47.001Z,96.20
2023-05-08T04:02:47.044Z,96.09
2023-05-08T04:03:47.108Z,96.50
2023-05-08T04:04:46.932Z,96.40
2023-05-08T04:05:46.925Z,96.71
2023-05-08T04:06:50.478Z,96.61
2023-05-08T04:07:46.891Z,96.50
2023-05-08T04:08:46.885Z,96.71
2023-05-08T04:09:46.871Z,96.50
2023-05-08T04:10:46.858Z,96.30
2023-05-08T04:11:46.845Z,96.40
2023-05-08T04:12:46.850Z,96.40
2023-05-08T04:13:46.820Z,96.45
2023-05-08T04:14:46.804Z,96.35
2023-05-08T04:15:46.797Z,96.35
2023-05-08T04:16:46.825Z,96.24
2023-05-08T04:17:46.804Z,96.45
2023-05-08T04:18:46.757Z,96.45
2023-05-08T04:19:46.786Z,96.65
2023-05-08T04:20:46.734Z,96.45
2023-05-08T04:21:46.717Z,96.45
2023-05-08T04:22:46.703Z,96.55
2023-05-08T04:23:46.691Z,96.55
2023-05-08T04:24:46.695Z,96.55
2023-05-08T04:25:46.664Z,96.75
2023-05-08T04:26:46.684Z,96.85
2023-05-08T04:27:46.650Z,96.75
2023-05-08T04:28:46.624Z,96.75
2023-05-08T04:29:46.612Z,96.35
2023-05-08T04:30:46.603Z,96.45
2023-05-08T04:31:46.629Z,96.55
2023-05-08T04:32:47.018Z,96.55
2023-05-08T04:33:46.565Z,96.65
2023-05-08T04:34:46.550Z,96.85
2023-05-08T04:35:46.561Z,96.96
2023-05-08T04:36:46.527Z,97.00
2023-05-08T04:37:46.545Z,97.26
2023-05-08T04:38:46.495Z,97.16
2023-05-08T04:39:46.480Z,97.16
2023-05-08T04:40:46.495Z,97.16
2023-05-08T04:41:46.499Z,97.21
2023-05-08T04:42:46.462Z,97.21
2023-05-08T04:43:46.436Z,97.31
2023-05-08T04:44:46.427Z,97.46
2023-05-08T04:45:46.423Z,97.26
2023-05-08T04:46:46.396Z,97.46
2023-05-08T04:47:46.421Z,97.26
2023-05-08T04:48:46.368Z,97.06
2023-05-08T04:49:46.357Z,96.85
2023-05-08T04:50:46.346Z,96.85
2023-05-08T04:51:46.351Z,96.75
2023-05-08T04:52:46.315Z,96.65
2023-05-08T04:53:46.306Z,96.75
2023-05-08T04:54:46.294Z,96.96
2023-05-08T04:55:46.278Z,96.80
2023-05-08T04:56:46.266Z,96.75
2023-05-08T04:57:46.253Z,96.85
2023-05-08T04:58:46.243Z,96.75
2023-05-08T04:59:46.231Z,96.75
2023-05-08T05:00:46.211Z,96.85
2023-05-08T05:01:46.241Z,96.75
2023-05-08T05:02:46.222Z,96.85
2023-05-08T05:03:46.236Z,96.85
2023-05-08T05:04:46.166Z,96.85
2023-05-08T05:05:46.152Z,96.65
2023-05-08T05:06:46.136Z,96.55
2023-05-08T05:07:46.152Z,96.55
2023-05-08T05:08:46.109Z,96.55
2023-05-08T05:09:46.091Z,96.55
2023-05-08T05:10:46.081Z,96.45
2023-05-08T05:11:46.071Z,96.45
2023-05-08T05:12:46.137Z,96.55
2023-05-08T05:13:46.039Z,96.50
2023-05-08T05:14:46.025Z,96.50
2023-05-08T05:15:46.027Z,96.61
2023-05-08T05:16:46.038Z,96.61
2023-05-08T05:17:46.035Z,96.50
2023-05-08T05:18:45.977Z,96.30
2023-05-08T05:19:45.959Z,96.05
2023-05-08T05:20:45.962Z,96.36
2023-05-08T05:21:45.936Z,95.84
2023-05-08T05:22:45.930Z,95.95
2023-05-08T05:23:46.030Z,96.11
2023-05-08T05:24:45.904Z,95.80
2023-05-08T05:25:45.892Z,96.00
2023-05-08T05:26:45.875Z,96.00
2023-05-08T05:27:45.854Z,95.70
2023-05-08T05:28:45.845Z,95.91
2023-05-08T05:29:45.832Z,95.91
2023-05-08T05:30:45.821Z,95.60
2023-05-08T05:31:45.827Z,95.09
2023-05-08T05:32:45.844Z,94.68
2023-05-08T05:33:45.782Z,93.81
2023-05-08T05:34:45.768Z,94.12
2023-05-08T05:35:45.768Z,94.53
2023-05-08T05:36:45.742Z,94.73
2023-05-08T05:37:45.728Z,94.62
2023-05-08T05:38:45.720Z,94.53
2023-05-08T05:39:45.737Z,94.73
2023-05-08T05:40:45.686Z,94.93
2023-05-08T05:41:45.678Z,94.83
2023-05-08T05:42:45.663Z,95.03
2023-05-08T05:43:45.645Z,95.34
2023-05-08T05:44:45.648Z,95.14
2023-05-08T05:45:45.623Z,95.14
2023-05-08T05:46:45.629Z,95.03
2023-05-08T05:47:45.654Z,94.73
2023-05-08T05:48:45.581Z,94.83
2023-05-08T05:49:45.570Z,95.14
2023-05-08T05:50:45.556Z,94.93
2023-05-08T05:51:45.541Z,95.14
2023-05-08T05:52:45.529Z,95.08
2023-05-08T05:53:45.512Z,94.77
2023-05-08T05:54:45.506Z,95.08
2023-05-08T05:55:45.524Z,95.38
2023-05-08T05:56:45.480Z,95.23
2023-05-08T05:57:45.463Z,95.23
2023-05-08T05:58:45.469Z,95.23
2023-05-08T05:59:45.437Z,95.34
2023-05-08T06:00:45.437Z,95.60
2023-05-08T06:01:45.470Z,95.50
2023-05-08T06:02:45.538Z,94.58
2023-05-08T06:03:45.466Z,94.01
2023-05-08T06:04:45.386Z,94.53
2023-05-08T06:05:45.358Z,94.93
2023-05-08T06:06:45.347Z,95.03
2023-05-08T06:07:45.334Z,95.64
2023-05-08T06:08:45.322Z,95.80
2023-05-08T06:09:45.317Z,95.30
2023-05-08T06:10:45.295Z,94.93
2023-05-08T06:11:45.305Z,95.03
2023-05-08T06:12:45.270Z,95.19
2023-05-08T06:13:45.268Z,95.09
2023-05-08T06:14:45.244Z,94.99
2023-05-08T06:15:45.228Z,94.58
2023-05-08T06:16:45.280Z,94.53
2023-05-08T06:17:45.246Z,95.03
2023-05-08T06:18:45.191Z,95.03
2023-05-08T06:19:45.176Z,94.83
2023-05-08T06:20:45.165Z,95.34
2023-05-08T06:21:45.153Z,95.54
2023-05-08T06:22:45.153Z,95.23
2023-05-08T06:23:45.126Z,95.39
2023-05-08T06:24:45.133Z,95.50
2023-05-08T06:25:45.100Z,95.60
2023-05-08T06:26:45.090Z,95.91
2023-05-08T06:27:45.113Z,95.80
2023-05-08T06:28:45.066Z,95.60
2023-05-08T06:29:45.047Z,95.39
2023-05-08T06:30:45.060Z,94.99
2023-05-08T06:31:45.035Z,95.50
2023-05-08T06:32:45.077Z,95.80
2023-05-08T06:33:45.005Z,95.55
2023-05-08T06:34:45.008Z,95.05
2023-05-08T06:35:44.971Z,94.43
2023-05-08T06:36:44.960Z,94.64
2023-05-08T06:37:44.945Z,93.67
2023-05-08T06:38:44.947Z,93.87
2023-05-08T06:39:44.921Z,94.94
2023-05-08T06:40:44.918Z,94.94
2023-05-08T06:41:44.898Z,94.94
2023-05-08T06:42:44.895Z,93.21
2023-05-08T06:43:44.981Z,93.67
2023-05-08T06:44:44.878Z,93.87
2023-05-08T06:45:44.839Z,94.43
2023-05-08T06:46:44.864Z,93.77
2023-05-08T06:47:44.974Z,93.67
2023-05-08T06:48:44.809Z,93.87
2023-05-08T06:49:44.798Z,93.56
2023-05-08T06:50:44.796Z,93.51
2023-05-08T06:51:44.783Z,94.01
2023-05-08T06:52:44.753Z,94.17
2023-05-08T06:53:44.752Z,94.38
2023-05-08T06:54:44.729Z,93.56
2023-05-08T06:55:44.716Z,92.95
2023-05-08T06:56:44.706Z,93.36
2023-05-08T06:57:44.695Z,93.42
2023-05-08T06:58:48.413Z,93.16
2023-05-08T06:59:46.764Z,93.12
2023-05-08T07:00:44.649Z,93.32
2023-05-08T07:01:44.669Z,92.20
2023-05-08T07:02:44.644Z,92.30
2023-05-08T07:03:44.613Z,92.71
2023-05-08T07:04:44.749Z,92.87
2023-05-08T07:05:44.583Z,92.16
2023-05-08T07:06:44.576Z,91.65
2023-05-08T07:07:44.557Z,92.52
2023-05-08T07:08:44.546Z,92.41
2023-05-08T07:09:44.535Z,90.83
2023-05-08T07:10:44.519Z,91.75
2023-05-08T07:11:44.515Z,91.75
2023-05-08T07:12:44.582Z,91.49
2023-05-08T07:13:44.480Z,91.59
2023-05-08T07:14:44.490Z,92.91
2023-05-08T07:15:44.556Z,91.95
2023-05-08T07:16:44.448Z,91.65
2023-05-08T07:17:44.470Z,91.75
2023-05-08T07:18:44.420Z,90.63
2023-05-08T07:19:44.416Z,90.74
2023-05-08T07:20:44.389Z,91.04
2023-05-08T07:21:44.426Z,92.01
2023-05-08T07:22:44.364Z,92.12
2023-05-08T07:23:44.357Z,91.30
2023-05-08T07:24:44.349Z,90.28
2023-05-08T07:25:44.331Z,90.39
2023-05-08T07:26:44.319Z,90.75
2023-05-08T07:27:44.305Z,91.05
2023-05-08T07:28:44.292Z,90.44
2023-05-08T07:29:44.278Z,89.63
2023-05-08T07:30:44.264Z,90.44
2023-05-08T07:31:44.294Z,90.18
2023-05-08T07:32:44.292Z,91.00
2023-05-08T07:33:44.241Z,90.69
2023-05-08T07:34:44.244Z,91.10
2023-05-08T07:35:44.199Z,90.39
2023-05-08T07:36:44.186Z,90.18
2023-05-08T07:37:44.178Z,90.69
2023-05-08T07:38:44.167Z,90.49
2023-05-08T07:39:44.144Z,90.28
2023-05-08T07:40:44.132Z,90.89
2023-05-08T07:41:44.155Z,90.35
2023-05-08T07:42:44.171Z,90.65
2023-05-08T07:43:44.118Z,91.52
2023-05-08T07:44:53.763Z,89.23
2023-05-08T07:45:44.066Z,89.63
2023-05-08T07:46:44.148Z,89.73
2023-05-08T07:47:44.115Z,90.10
2023-05-08T07:48:44.024Z,90.30
2023-05-08T07:49:44.021Z,90.10
2023-05-08T07:50:44.009Z,88.48
2023-05-08T07:51:43.989Z,88.53
2023-05-08T07:52:43.976Z,88.84
2023-05-08T07:53:44.048Z,87.98
2023-05-08T07:54:44.161Z,87.48
2023-05-08T07:55:43.935Z,87.48
2023-05-08T07:56:43.922Z,87.48
2023-05-08T07:57:43.904Z,88.09
2023-05-08T07:58:43.895Z,86.51
2023-05-08T07:59:43.895Z,87.36
2023-05-08T08:00:43.870Z,89.08
2023-05-08T08:01:43.925Z,90.16
2023-05-08T08:02:43.946Z,90.16
2023-05-08T08:03:43.947Z,89.20
2023-05-08T08:04:43.839Z,88.19
2023-05-08T08:05:43.809Z,88.96
2023-05-08T08:06:43.798Z,88.35
2023-05-08T08:07:43.777Z,87.03
2023-05-08T08:08:43.761Z,85.76
2023-05-08T08:09:43.749Z,87.64
2023-05-08T08:10:43.735Z,89.16
2023-05-08T08:11:43.724Z,86.37
2023-05-08T08:12:43.762Z,87.95
2023-05-08T08:13:43.701Z,89.20
2023-05-08T08:14:43.687Z,89.36
2023-05-08T08:15:43.678Z,88.35
2023-05-08T08:16:43.697Z,87.54
2023-05-08T08:17:43.675Z,87.64
2023-05-08T08:18:43.634Z,86.87
2023-05-08T08:19:43.747Z,87.07
2023-05-08T08:20:43.610Z,88.55
2023-05-08T08:21:43.628Z,87.44
2023-05-08T08:22:43.585Z,87.44
2023-05-08T08:23:43.580Z,87.95
2023-05-08T08:24:43.566Z,87.70
2023-05-08T08:25:43.550Z,87.80
2023-05-08T08:26:43.593Z,87.23
2023-05-08T08:27:43.518Z,87.13
2023-05-08T08:28:43.506Z,86.73
2023-05-08T08:29:43.497Z,86.69
2023-05-08T08:30:43.517Z,87.09
2023-05-08T08:31:43.580Z,86.69
2023-05-08T08:32:43.497Z,85.21
2023-05-08T08:33:43.451Z,87.23
2023-05-08T08:34:43.436Z,87.80
2023-05-08T08:35:43.534Z,87.90
2023-05-08T08:36:43.405Z,88.51
2023-05-08T08:37:43.392Z,87.90
2023-05-08T08:38:43.381Z,85.68
2023-05-08T08:39:43.365Z,86.02
2023-05-08T08:40:43.349Z,86.43
2023-05-08T08:41:43.343Z,87.03
2023-05-08T08:42:43.338Z,87.40
2023-05-08T08:43:43.312Z,88.31
2023-05-08T08:44:43.298Z,87.80
2023-05-08T08:45:43.291Z,87.80
2023-05-08T08:46:43.353Z,87.90
2023-05-08T08:47:43.289Z,87.29
2023-05-08T08:48:43.245Z,88.72
2023-05-08T08:49:43.237Z,88.11
2023-05-08T08:50:43.222Z,86.89
2023-05-08T08:51:43.361Z,86.02
2023-05-08T08:52:43.192Z,87.28
2023-05-08T08:53:43.190Z,88.49
2023-05-08T08:54:43.218Z,87.98
2023-05-08T08:55:43.172Z,88.25
2023-05-08T08:56:43.137Z,88.65
2023-05-08T08:57:43.130Z,88.04
2023-05-08T08:58:43.116Z,87.95
2023-05-08T08:59:43.121Z,87.95
2023-05-08T09:00:43.109Z,88.35
2023-05-08T09:01:43.151Z,88.80
2023-05-08T09:02:43.229Z,88.90
2023-05-08T09:03:43.144Z,88.90
2023-05-08T09:04:43.040Z,88.29
2023-05-08T09:05:43.025Z,88.29
2023-05-08T09:06:43.023Z,89.20
2023-05-08T09:07:43.122Z,90.31
2023-05-08T09:08:42.990Z,91.13
2023-05-08T09:09:42.973Z,89.87
2023-05-08T09:10:42.958Z,89.56
2023-05-08T09:11:42.956Z,89.16
2023-05-08T09:12:42.948Z,89.06
2023-05-08T09:13:42.921Z,88.35
2023-05-08T09:14:42.915Z,88.55
2023-05-08T09:15:42.893Z,88.65
2023-05-08T09:16:42.997Z,88.45
2023-05-08T09:17:42.926Z,89.26
2023-05-08T09:18:42.864Z,88.65
2023-05-08T09:19:42.853Z,87.95
2023-05-08T09:20:42.822Z,88.15
2023-05-08T09:21:42.817Z,89.12
2023-05-08T09:22:42.801Z,88.11
2023-05-08T09:23:42.910Z,87.40
2023-05-08T09:24:42.772Z,87.09
2023-05-08T09:25:42.759Z,87.09
2023-05-08T09:26:42.744Z,87.80
2023-05-08T09:27:42.741Z,87.50
2023-05-08T09:28:42.719Z,88.00
2023-05-08T09:29:42.710Z,88.47
2023-05-08T09:30:42.694Z,87.80
2023-05-08T09:31:42.762Z,86.79
2023-05-08T09:32:42.782Z,87.76
2023-05-08T09:33:42.651Z,86.95
2023-05-08T09:34:42.641Z,86.45
2023-05-08T09:35:42.629Z,86.85
2023-05-08T09:36:42.624Z,85.54
2023-05-08T09:37:42.624Z,85.49
2023-05-08T09:38:42.589Z,85.23
2023-05-08T09:39:42.710Z,87.01
2023-05-08T09:40:42.562Z,85.86
2023-05-08T09:41:42.552Z,85.96
2023-05-08T09:42:42.539Z,85.01
2023-05-08T09:43:42.531Z,83.89
2023-05-08T09:44:42.513Z,83.89
2023-05-08T09:45:42.697Z,84.50
2023-05-08T09:46:42.481Z,84.66
2023-05-08T09:47:42.535Z,83.41
2023-05-08T09:48:42.456Z,82.87
2023-05-08T09:49:42.446Z,82.63
2023-05-08T09:50:43.648Z,80.67
2023-05-08T09:51:42.423Z,80.33
2023-05-08T09:52:42.405Z,80.23
2023-05-08T09:53:42.410Z,79.63
2023-05-08T09:54:42.408Z,78.52
2023-05-08T09:55:42.518Z,80.23
2023-05-08T09:56:42.356Z,79.97
2023-05-08T09:57:42.349Z,79.52
2023-05-08T09:58:42.337Z,78.38
2023-05-08T09:59:42.320Z,77.58
2023-05-08T10:00:42.331Z,77.67
2023-05-08T10:01:42.348Z,77.70
2023-05-08T10:02:42.434Z,77.06
2023-05-08T10:03:42.298Z,76.32
2023-05-08T10:04:42.282Z,75.62
2023-05-08T10:05:42.242Z,74.71
2023-05-08T10:06:42.231Z,74.51
2023-05-08T10:07:42.225Z,76.09
2023-05-08T10:08:42.203Z,75.45
2023-05-08T10:09:50.139Z,77.00
2023-05-08T10:10:42.181Z,77.16
2023-05-08T10:11:42.293Z,75.86
2023-05-08T10:12:42.193Z,74.68
2023-05-08T10:13:42.143Z,75.49
2023-05-08T10:14:43.576Z,75.99
2023-05-08T10:15:42.118Z,75.15
2023-05-08T10:16:42.129Z,75.38
2023-05-08T10:17:42.130Z,73.43
2023-05-08T10:18:42.076Z,71.60
2023-05-08T10:19:42.064Z,70.75
2023-05-08T10:20:42.063Z,70.86
2023-05-08T10:21:42.041Z,71.33
2023-05-08T10:22:42.028Z,71.36
2023-05-08T10:23:42.013Z,70.45
2023-05-08T10:24:41.998Z,70.32
2023-05-08T10:25:41.987Z,71.49
2023-05-08T10:26:47.765Z,71.29
2023-05-08T10:27:44.094Z,70.09
2023-05-08T10:28:41.945Z,69.35
2023-05-08T10:29:41.938Z,69.78
2023-05-08T10:30:41.946Z,70.45
2023-05-08T10:31:41.958Z,69.92
2023-05-08T10:32:41.906Z,69.45
2023-05-08T10:33:41.884Z,69.05
2023-05-08T10:34:41.875Z,69.02
2023-05-08T10:35:41.859Z,67.68
2023-05-08T10:36:41.849Z,67.65
2023-05-08T10:37:41.849Z,67.29
2023-05-08T10:38:41.831Z,67.21
2023-05-08T10:39:41.821Z,68.78
2023-05-08T10:40:41.798Z,69.65
2023-05-08T10:41:41.802Z,70.05
2023-05-08T10:42:41.781Z,69.32
2023-05-08T10:43:41.890Z,67.68
2023-05-08T10:44:41.748Z,67.38
2023-05-08T10:45:41.747Z,67.79
2023-05-08T10:46:41.858Z,68.21
2023-05-08T10:47:41.735Z,68.02
2023-05-08T10:48:41.702Z,67.21
2023-05-08T10:49:41.689Z,67.52
2023-05-08T10:50:41.688Z,68.55
2023-05-08T10:51:41.678Z,67.52
2023-05-08T10:52:41.649Z,68.35
2023-05-08T10:53:41.638Z,68.15
2023-05-08T10:54:41.624Z,68.18
2023-05-08T10:55:41.617Z,69.05
2023-05-08T10:56:41.602Z,68.21
2023-05-08T10:57:41.593Z,67.38
2023-05-08T10:58:41.573Z,66.01
2023-05-08T10:59:41.588Z,68.02
2023-05-08T11:00:41.555Z,68.45
2023-05-08T11:01:41.589Z,68.85
2023-05-08T11:02:41.599Z,68.21
2023-05-08T11:03:41.572Z,67.71
2023-05-08T11:04:41.559Z,68.32
2023-05-08T11:05:41.491Z,68.02
2023-05-08T11:06:41.473Z,66.61
2023-05-08T11:07:41.461Z,67.08
2023-05-08T11:08:41.453Z,66.82
2023-05-08T11:09:41.474Z,66.71
2023-05-08T11:10:41.425Z,66.94
2023-05-08T11:11:41.420Z,68.15
2023-05-08T11:12:41.428Z,67.38
2023-05-08T11:13:41.401Z,68.42
2023-05-08T11:14:41.382Z,69.52
2023-05-08T11:15:41.391Z,69.92
2023-05-08T11:16:41.468Z,69.52
2023-05-08T11:17:41.376Z,69.02
2023-05-08T11:18:49.378Z,68.71
2023-05-08T11:19:43.316Z,69.65
2023-05-08T11:21:41.297Z,68.82
2023-05-08T11:22:41.287Z,67.75
2023-05-08T11:23:41.267Z,67.75
2023-05-08T11:24:41.263Z,68.55
2023-05-08T11:25:41.238Z,68.05
2023-05-08T11:26:41.231Z,68.78
2023-05-08T11:27:41.251Z,67.48
2023-05-08T11:28:41.199Z,67.44
2023-05-08T11:29:41.186Z,67.15
2023-05-08T11:30:41.174Z,67.08
2023-05-08T11:31:41.199Z,66.68
2023-05-08T11:32:41.182Z,66.74
2023-05-08T11:33:41.135Z,67.25
2023-05-08T11:34:41.120Z,66.82
2023-05-08T11:35:41.121Z,66.51
2023-05-08T11:36:41.094Z,67.15
2023-05-08T11:37:41.083Z,67.12
2023-05-08T11:38:41.085Z,67.41
2023-05-08T11:39:41.059Z,67.52
2023-05-08T11:40:41.043Z,67.12
2023-05-08T11:41:41.068Z,67.68
2023-05-08T11:42:41.021Z,66.18
2023-05-08T11:43:41.017Z,66.51
2023-05-08T11:44:40.992Z,66.91
2023-05-08T11:45:40.979Z,67.02
2023-05-08T11:46:41.000Z,67.41
2023-05-08T11:47:40.990Z,67.05
2023-05-08T11:48:40.946Z,67.15
2023-05-08T11:49:40.928Z,67.85
2023-05-08T11:50:40.914Z,68.75
2023-05-08T11:51:40.915Z,69.18
2023-05-08T11:52:40.887Z,69.05
2023-05-08T11:53:40.889Z,68.55
2023-05-08T11:54:40.879Z,68.05
2023-05-08T11:55:40.852Z,67.98
2023-05-08T11:56:40.837Z,68.12
2023-05-08T11:57:40.846Z,69.12
2023-05-08T11:58:40.810Z,69.52
2023-05-08T11:59:40.797Z,68.85
2023-05-08T12:00:40.842Z,69.35
2023-05-08T12:01:40.866Z,70.39
2023-05-08T12:02:40.834Z,70.79
2023-05-08T12:03:40.886Z,71.49
2023-05-08T12:04:40.781Z,70.59
2023-05-08T12:05:40.767Z,70.56
2023-05-08T12:06:40.708Z,70.45
2023-05-08T12:07:40.698Z,70.79
2023-05-08T12:08:40.692Z,71.02
2023-05-08T12:09:40.675Z,71.63
2023-05-08T12:10:40.661Z,72.23
2023-05-08T12:11:40.648Z,72.57
2023-05-08T12:12:40.677Z,72.86
2023-05-08T12:14:40.617Z,71.73
2023-05-08T12:15:40.596Z,71.89
2023-05-08T12:16:40.612Z,71.39
2023-05-08T12:17:40.583Z,71.69
2023-05-08T12:18:40.555Z,72.13
2023-05-08T12:19:40.596Z,72.03
2023-05-08T12:20:40.534Z,71.63
2023-05-08T12:21:40.541Z,72.23
2023-05-08T12:22:40.506Z,71.73
2023-05-08T12:23:40.499Z,72.23
2023-05-08T12:24:40.486Z,72.77
2023-05-08T12:25:40.466Z,73.04
2023-05-08T12:26:40.458Z,73.04
2023-05-08T12:27:40.441Z,71.79
2023-05-08T12:28:40.428Z,71.39
2023-05-08T12:29:40.421Z,71.39
2023-05-08T12:30:40.418Z,71.93
2023-05-08T12:31:40.441Z,72.23
2023-05-08T12:32:40.396Z,72.30
2023-05-08T12:33:40.369Z,72.10
2023-05-08T12:34:40.355Z,72.33
2023-05-08T12:35:40.365Z,73.43
2023-05-08T12:36:40.358Z,72.90
2023-05-08T12:37:40.330Z,72.10
2023-05-08T12:38:40.298Z,71.60
2023-05-08T12:39:40.294Z,71.46
2023-05-08T12:40:40.277Z,71.06
2023-05-08T12:41:40.266Z,71.13
2023-05-08T12:42:40.251Z,70.82
2023-05-08T12:43:40.252Z,71.26
2023-05-08T12:44:40.225Z,71.96
2023-05-08T12:45:40.230Z,71.89
2023-05-08T12:46:40.223Z,72.60
2023-05-08T12:47:40.236Z,71.99
2023-05-08T12:48:40.176Z,71.89
2023-05-08T12:49:40.165Z,72.10
2023-05-08T12:50:40.153Z,71.86
2023-05-08T12:51:40.256Z,71.56
2023-05-08T12:52:40.128Z,70.95
2023-05-08T12:53:40.110Z,70.95
2023-05-08T12:54:40.125Z,71.16
2023-05-08T12:55:40.086Z,71.46